createdAt,value
2022-11-24T00:01:17.679Z,97370.09
2022-11-24T00:02:49.353Z,97369.19
2022-11-24T00:04:21.075Z,97364.34
2022-11-24T00:05:52.595Z,97365.63
2022-11-24T00:07:24.226Z,97368.50
2022-11-24T00:08:56.591Z,97363.50
2022-11-24T00:10:28.130Z,97362.81
2022-11-24T00:12:01.304Z,97360.22
2022-11-24T00:13:33.612Z,97353.66
2022-11-24T00:15:05.556Z,97357.81
2022-11-24T00:16:38.559Z,97362.97
2022-11-24T00:18:10.140Z,97364.34
2022-11-24T00:19:42.000Z,97367.56
2022-11-24T00:21:15.565Z,97367.56
2022-11-24T00:22:47.155Z,97365.56
2022-11-24T00:24:18.846Z,97370.75
2022-11-24T00:25:50.354Z,97382.78
2022-11-24T00:27:21.949Z,97371.72
2022-11-24T00:28:55.614Z,97374.38
2022-11-24T00:30:27.212Z,97387.16
2022-11-24T00:31:58.806Z,97383.44
2022-11-24T00:33:30.690Z,97382.25
2022-11-24T00:35:02.213Z,97386.34
2022-11-24T00:36:35.679Z,97390.63
2022-11-24T00:38:08.844Z,97390.84
2022-11-24T00:39:40.400Z,97388.00
2022-11-24T00:41:12.763Z,97388.88
2022-11-24T00:42:44.299Z,97398.78
2022-11-24T00:44:15.888Z,97401.47
2022-11-24T00:45:47.479Z,97405.91
2022-11-24T00:47:19.216Z,97402.59
2022-11-24T00:48:51.448Z,97403.13
2022-11-24T00:50:23.079Z,97414.69
2022-11-24T00:51:54.702Z,97408.16
2022-11-24T00:53:26.664Z,97410.75
2022-11-24T00:54:58.246Z,97416.31
2022-11-24T00:56:30.416Z,97414.63
2022-11-24T00:58:02.017Z,97422.84
2022-11-24T00:59:33.631Z,97417.28
2022-11-24T01:01:20.867Z,97415.78
2022-11-24T01:02:52.945Z,97423.13
2022-11-24T01:04:24.679Z,97420.13
2022-11-24T01:05:56.415Z,97425.25
2022-11-24T01:07:27.986Z,97429.25
2022-11-24T01:08:59.836Z,97427.34
2022-11-24T01:10:32.283Z,97435.97
2022-11-24T01:12:04.363Z,97440.75
2022-11-24T01:13:36.093Z,97444.41
2022-11-24T01:15:08.006Z,97437.84
2022-11-24T01:16:39.608Z,97440.72
2022-11-24T01:18:11.160Z,97443.22
2022-11-24T01:19:42.704Z,97447.06
2022-11-24T01:21:15.308Z,97442.28
2022-11-24T01:22:48.671Z,97449.53
2022-11-24T01:24:20.345Z,97456.75
2022-11-24T01:25:51.907Z,97462.75
2022-11-24T01:27:23.473Z,97458.50
2022-11-24T01:28:57.561Z,97457.56
2022-11-24T01:30:29.129Z,97468.09
2022-11-24T01:32:00.759Z,97469.06
2022-11-24T01:33:33.682Z,97466.69
2022-11-24T01:35:06.770Z,97472.00
2022-11-24T01:36:38.398Z,97478.97
2022-11-24T01:38:09.913Z,97479.94
2022-11-24T01:39:41.451Z,97480.22
2022-11-24T01:41:25.209Z,97481.16
2022-11-24T01:42:56.792Z,97476.25
2022-11-24T01:44:30.403Z,97492.06
2022-11-24T01:46:30.310Z,97493.31
2022-11-24T01:48:05.683Z,97490.84
2022-11-24T01:49:42.958Z,97489.47
2022-11-24T01:51:19.521Z,97488.88
2022-11-24T01:52:55.256Z,97490.00
2022-11-24T01:54:39.785Z,97496.31
2022-11-24T01:56:13.401Z,97492.59
2022-11-24T01:57:53.462Z,97493.69
2022-11-24T01:59:25.865Z,97491.47
2022-11-24T02:00:57.520Z,97494.38
2022-11-24T02:02:30.072Z,97495.56
2022-11-24T02:04:04.982Z,97500.19
2022-11-24T02:05:52.579Z,97507.22
2022-11-24T02:07:25.090Z,97503.13
2022-11-24T02:09:02.680Z,97500.97
2022-11-24T02:10:34.233Z,97498.41
2022-11-24T02:12:06.297Z,97501.13
2022-11-24T02:13:39.902Z,97503.56
2022-11-24T02:15:11.967Z,97499.97
2022-11-24T02:16:49.059Z,97505.47
2022-11-24T02:18:20.786Z,97504.88
2022-11-24T02:19:58.463Z,97508.06
2022-11-24T02:21:30.070Z,97507.50
2022-11-24T02:23:13.273Z,97498.22
2022-11-24T02:25:08.720Z,97495.66
2022-11-24T02:26:47.082Z,97489.69
2022-11-24T02:28:22.066Z,97486.00
2022-11-24T02:29:53.662Z,97502.28
2022-11-24T02:31:25.553Z,97500.94
2022-11-24T02:32:57.259Z,97507.22
2022-11-24T02:34:28.861Z,97506.66
2022-11-24T02:36:00.445Z,97498.34
2022-11-24T02:37:31.988Z,97504.25
2022-11-24T02:39:03.794Z,97500.44
2022-11-24T02:40:35.536Z,97501.13
2022-11-24T02:42:11.491Z,97492.13
2022-11-24T02:43:46.139Z,97496.06
2022-11-24T02:45:17.967Z,97498.38
2022-11-24T02:46:49.539Z,97499.63
2022-11-24T02:48:21.051Z,97501.66
2022-11-24T02:49:52.639Z,97492.69
2022-11-24T02:51:24.315Z,97506.03
2022-11-24T02:52:55.872Z,97504.81
2022-11-24T02:54:27.873Z,97506.75
2022-11-24T02:55:59.437Z,97510.28
2022-11-24T02:57:31.430Z,97511.63
2022-11-24T02:59:02.998Z,97518.59
2022-11-24T03:00:34.541Z,97508.25
2022-11-24T03:02:06.348Z,97507.13
2022-11-24T03:03:38.225Z,97513.94
2022-11-24T03:05:12.010Z,97512.72
2022-11-24T03:06:43.926Z,97511.06
2022-11-24T03:08:15.683Z,97516.53
2022-11-24T03:09:47.218Z,97512.19
2022-11-24T03:11:18.714Z,97516.38
2022-11-24T03:12:50.368Z,97515.81
2022-11-24T03:14:21.935Z,97516.09
2022-11-24T03:15:53.624Z,97519.06
2022-11-24T03:17:25.183Z,97515.00
2022-11-24T03:18:56.702Z,97512.69
2022-11-24T03:20:28.573Z,97511.88
2022-11-24T03:22:00.109Z,97521.94
2022-11-24T03:23:31.699Z,97526.56
2022-11-24T03:25:03.719Z,97528.59
2022-11-24T03:26:35.623Z,97531.72
2022-11-24T03:28:07.158Z,97525.84
2022-11-24T03:29:38.696Z,97533.88
2022-11-24T03:31:11.156Z,97534.16
2022-11-24T03:32:42.821Z,97541.22
2022-11-24T03:34:14.343Z,97535.50
2022-11-24T03:35:45.895Z,97539.28
2022-11-24T03:37:17.572Z,97547.75
2022-11-24T03:38:49.753Z,97539.41
2022-11-24T03:40:21.336Z,97553.19
2022-11-24T03:41:52.889Z,97554.13
2022-11-24T03:43:24.469Z,97558.88
2022-11-24T03:44:56.001Z,97557.16
2022-11-24T03:46:27.735Z,97558.09
2022-11-24T03:47:59.316Z,97555.75
2022-11-24T03:49:30.924Z,97564.47
2022-11-24T03:51:03.285Z,97568.16
2022-11-24T03:52:34.781Z,97563.09
2022-11-24T03:54:06.773Z,97563.34
2022-11-24T03:55:38.293Z,97564.69
2022-11-24T03:57:09.942Z,97565.28
2022-11-24T03:58:41.443Z,97561.28
2022-11-24T04:00:13.411Z,97560.75
2022-11-24T04:01:45.472Z,97563.44
2022-11-24T04:03:17.187Z,97564.41
2022-11-24T04:04:50.641Z,97569.56
2022-11-24T04:06:22.294Z,97570.50
2022-11-24T04:07:57.596Z,97572.69
2022-11-24T04:09:29.239Z,97571.28
2022-11-24T04:11:00.972Z,97571.56
2022-11-24T04:12:44.810Z,97576.97
2022-11-24T04:14:16.455Z,97573.81
2022-11-24T04:15:48.301Z,97576.28
2022-11-24T04:17:19.910Z,97575.47
2022-11-24T04:18:54.544Z,97583.34
2022-11-24T04:20:26.061Z,97581.59
2022-11-24T04:21:57.608Z,97579.94
2022-11-24T04:23:29.240Z,97573.81
2022-11-24T04:25:00.796Z,97578.19
2022-11-24T04:26:32.325Z,97583.78
2022-11-24T04:28:04.252Z,97581.19
2022-11-24T04:29:35.880Z,97580.38
2022-11-24T04:31:07.499Z,97579.00
2022-11-24T04:32:39.094Z,97588.66
2022-11-24T04:34:11.458Z,97576.84
2022-11-24T04:35:43.033Z,97588.25
2022-11-24T04:37:14.689Z,97577.91
2022-11-24T04:39:25.819Z,97584.19
2022-11-24T04:40:38.162Z,97577.25
2022-11-24T04:42:09.779Z,97586.25
2022-11-24T04:43:41.357Z,97593.31
2022-11-24T04:45:12.903Z,97599.06
2022-11-24T04:46:44.612Z,97592.78
2022-11-24T04:48:16.176Z,97588.44
2022-11-24T04:49:49.113Z,97590.66
2022-11-24T04:51:20.746Z,97586.69
2022-11-24T04:52:52.641Z,97597.97
2022-11-24T04:54:24.318Z,97596.03
2022-11-24T04:55:55.839Z,97596.41
2022-11-24T04:57:27.781Z,97596.91
2022-11-24T04:59:03.846Z,97602.91
2022-11-24T05:00:39.632Z,97605.06
2022-11-24T05:02:11.729Z,97601.66
2022-11-24T05:03:43.297Z,97607.06
2022-11-24T05:05:14.906Z,97613.78
2022-11-24T05:06:46.752Z,97612.25
2022-11-24T05:08:18.317Z,97617.03
2022-11-24T05:10:08.201Z,97613.97
2022-11-24T05:11:39.726Z,97615.53
2022-11-24T05:13:12.708Z,97617.81
2022-11-24T05:14:44.346Z,97617.81
2022-11-24T05:16:16.028Z,97626.63
2022-11-24T05:17:47.717Z,97624.16
2022-11-24T05:19:19.439Z,97622.97
2022-11-24T05:20:51.039Z,97623.03
2022-11-24T05:22:22.625Z,97625.09
2022-11-24T05:23:54.195Z,97626.19
2022-11-24T05:25:25.778Z,97628.66
2022-11-24T05:26:57.313Z,97630.16
2022-11-24T05:28:29.277Z,97624.97
2022-11-24T05:30:00.812Z,97630.03
2022-11-24T05:31:32.406Z,97627.56
2022-11-24T05:33:09.559Z,97631.81
2022-11-24T05:34:41.276Z,97633.44
2022-11-24T05:36:31.470Z,97631.81
2022-11-24T05:38:04.213Z,97634.66
2022-11-24T05:39:36.329Z,97634.28
2022-11-24T05:41:07.989Z,97632.75
2022-11-24T05:42:47.208Z,97631.91
2022-11-24T05:44:19.717Z,97635.13
2022-11-24T05:45:51.259Z,97645.38
2022-11-24T05:47:23.288Z,97640.69
2022-11-24T05:48:55.027Z,97635.91
2022-11-24T05:50:26.587Z,97642.25
2022-11-24T05:51:58.208Z,97641.31
2022-11-24T05:53:29.736Z,97644.66
2022-11-24T05:55:01.545Z,97645.63
2022-11-24T05:56:33.172Z,97643.97
2022-11-24T05:58:07.373Z,97644.09
2022-11-24T05:59:39.310Z,97642.56
2022-11-24T06:01:10.900Z,97641.50
2022-11-24T06:02:42.656Z,97648.22
2022-11-24T06:04:14.392Z,97639.47
2022-11-24T06:05:47.232Z,97650.53
2022-11-24T06:07:19.265Z,97654.66
2022-11-24T06:08:50.842Z,97654.25
2022-11-24T06:10:24.043Z,97647.09
2022-11-24T06:11:56.295Z,97641.13
2022-11-24T06:13:28.068Z,97647.44
2022-11-24T06:14:59.869Z,97640.69
2022-11-24T06:16:31.504Z,97639.41
2022-11-24T06:18:03.386Z,97640.88
2022-11-24T06:19:38.710Z,97642.22
2022-11-24T06:21:13.476Z,97635.78
2022-11-24T06:22:45.118Z,97631.56
2022-11-24T06:24:16.765Z,97628.59
2022-11-24T06:25:51.509Z,97627.88
2022-11-24T06:27:23.813Z,97622.31
2022-11-24T06:28:55.438Z,97623.78
2022-11-24T06:30:27.029Z,97629.19
2022-11-24T06:31:58.829Z,97623.34
2022-11-24T06:33:35.032Z,97621.69
2022-11-24T06:35:06.668Z,97620.75
2022-11-24T06:36:38.895Z,97634.00
2022-11-24T06:38:10.836Z,97640.19
2022-11-24T06:39:42.649Z,97641.44
2022-11-24T06:41:16.276Z,97645.53
2022-11-24T06:42:52.598Z,97650.44
2022-11-24T06:44:24.490Z,97650.31
2022-11-24T06:45:57.215Z,97660.81
2022-11-24T06:47:28.880Z,97659.16
2022-11-24T06:49:00.618Z,97661.88
2022-11-24T06:50:33.691Z,97652.47
2022-11-24T06:52:05.574Z,97662.03
2022-11-24T06:53:38.796Z,97659.28
2022-11-24T06:55:10.360Z,97666.81
2022-11-24T06:56:41.887Z,97666.41
2022-11-24T06:58:13.451Z,97661.94
2022-11-24T06:59:45.011Z,97672.88
2022-11-24T07:01:22.073Z,97666.47
2022-11-24T07:02:53.767Z,97667.16
2022-11-24T07:04:25.320Z,97678.78
2022-11-24T07:05:58.222Z,97680.31
2022-11-24T07:07:29.785Z,97687.91
2022-11-24T07:09:01.535Z,97694.50
2022-11-24T07:10:33.892Z,97696.16
2022-11-24T07:12:06.041Z,97679.50
2022-11-24T07:13:37.741Z,97690.56
2022-11-24T07:15:10.088Z,97687.97
2022-11-24T07:16:42.149Z,97693.72
2022-11-24T07:18:13.718Z,97686.50
2022-11-24T07:19:45.348Z,97696.47
2022-11-24T07:21:17.618Z,97701.16
2022-11-24T07:22:49.259Z,97700.75
2022-11-24T07:24:23.532Z,97698.97
2022-11-24T07:25:55.138Z,97697.88
2022-11-24T07:27:27.571Z,97697.75
2022-11-24T07:28:59.145Z,97699.13
2022-11-24T07:30:31.208Z,97706.63
2022-11-24T07:32:05.716Z,97709.09
2022-11-24T07:33:38.116Z,97720.28
2022-11-24T07:35:09.702Z,97726.31
2022-11-24T07:36:42.089Z,97729.31
2022-11-24T07:38:13.668Z,97736.13
2022-11-24T07:39:45.286Z,97742.03
2022-11-24T07:41:19.698Z,97751.03
2022-11-24T07:42:51.438Z,97753.50
2022-11-24T07:44:22.999Z,97762.00
2022-11-24T07:45:55.173Z,97763.47
2022-11-24T07:47:26.700Z,97772.91
2022-11-24T07:48:58.380Z,97766.13
2022-11-24T07:50:30.041Z,97777.19
2022-11-24T07:52:01.856Z,97771.72
2022-11-24T07:53:34.241Z,97773.53
2022-11-24T07:55:06.585Z,97778.88
2022-11-24T07:56:38.192Z,97778.44
2022-11-24T07:58:09.933Z,97776.97
2022-11-24T07:59:41.500Z,97783.81
2022-11-24T08:01:15.973Z,97776.84
2022-11-24T08:02:47.607Z,97779.03
2022-11-24T08:04:19.260Z,97782.16
2022-11-24T08:07:50.151Z,97791.09
2022-11-24T08:09:21.856Z,97782.47
2022-11-24T08:10:53.477Z,97785.06
2022-11-24T08:12:25.059Z,97783.13
2022-11-24T08:13:56.893Z,97787.78
2022-11-24T08:15:28.618Z,97789.72
2022-11-24T08:17:00.296Z,97786.44
2022-11-24T08:18:32.195Z,97786.56
2022-11-24T08:20:04.204Z,97777.00
2022-11-24T08:21:35.775Z,97779.47
2022-11-24T08:23:07.501Z,97781.81
2022-11-24T08:24:40.971Z,97792.84
2022-11-24T08:26:16.727Z,97799.97
2022-11-24T08:27:48.395Z,97802.56
2022-11-24T08:29:20.098Z,97798.72
2022-11-24T08:30:51.927Z,97807.91
2022-11-24T08:32:23.656Z,97799.69
2022-11-24T08:33:55.930Z,97800.91
2022-11-24T08:35:28.613Z,97800.91
2022-11-24T08:37:00.214Z,97798.00
2022-11-24T08:38:31.889Z,97801.44
2022-11-24T08:40:04.347Z,97797.44
2022-11-24T08:41:36.061Z,97783.22
2022-11-24T08:43:07.920Z,97794.13
2022-11-24T08:44:39.600Z,97784.81
2022-11-24T08:46:14.465Z,97789.56
2022-11-24T08:47:46.163Z,97788.47
2022-11-24T08:49:18.937Z,97788.16
2022-11-24T08:50:50.563Z,97802.09
2022-11-24T08:52:22.233Z,97801.66
2022-11-24T08:53:55.891Z,97805.69
2022-11-24T08:55:27.481Z,97802.47
2022-11-24T08:56:59.042Z,97800.13
2022-11-24T08:58:31.432Z,97803.28
2022-11-24T09:00:04.981Z,97804.25
2022-11-24T09:01:36.649Z,97804.06
2022-11-24T09:03:11.197Z,97805.81
2022-11-24T09:04:44.292Z,97812.03
2022-11-24T09:06:24.856Z,97814.28
2022-11-24T09:07:56.480Z,97820.09
2022-11-24T09:09:28.259Z,97811.59
2022-11-24T09:11:05.763Z,97808.09
2022-11-24T09:12:37.406Z,97816.56
2022-11-24T09:14:09.078Z,97820.59
2022-11-24T09:15:40.776Z,97818.72
2022-11-24T09:17:12.844Z,97825.53
2022-11-24T09:18:45.285Z,97829.31
2022-11-24T09:20:17.007Z,97824.19
2022-11-24T09:21:48.907Z,97830.22
2022-11-24T09:23:20.579Z,97827.75
2022-11-24T09:24:52.289Z,97826.03
2022-11-24T09:26:29.439Z,97846.25
2022-11-24T09:28:01.098Z,97834.91
2022-11-24T09:29:32.951Z,97839.34
2022-11-24T09:31:06.537Z,97841.81
2022-11-24T09:32:38.143Z,97845.19
2022-11-24T09:34:13.837Z,97846.63
2022-11-24T09:35:45.477Z,97844.00
2022-11-24T09:37:18.260Z,97849.06
2022-11-24T09:38:49.975Z,97842.50
2022-11-24T09:40:22.610Z,97845.19
2022-11-24T09:42:14.648Z,97847.81
2022-11-24T09:43:52.042Z,97843.28
2022-11-24T09:45:49.390Z,97848.38
2022-11-24T09:47:37.125Z,97850.94
2022-11-24T09:49:16.575Z,97857.22
2022-11-24T09:50:49.757Z,97853.84
2022-11-24T09:52:37.609Z,97845.50
2022-11-24T09:54:36.554Z,97842.56
2022-11-24T09:56:26.143Z,97849.66
2022-11-24T09:58:36.102Z,97850.63
2022-11-24T10:00:15.035Z,97858.38
2022-11-24T10:01:48.098Z,97852.69
2022-11-24T10:03:44.217Z,97854.00
2022-11-24T10:05:16.215Z,97858.91
2022-11-24T10:07:00.244Z,97860.53
2022-11-24T10:08:38.616Z,97861.59
2022-11-24T10:10:24.259Z,97865.47
2022-11-24T10:11:57.602Z,97866.47
2022-11-24T10:13:41.365Z,97866.16
2022-11-24T10:15:16.066Z,97873.66
2022-11-24T10:16:53.859Z,97866.66
2022-11-24T10:18:40.645Z,97873.75
2022-11-24T10:20:21.445Z,97876.22
2022-11-24T10:22:22.661Z,97863.28
2022-11-24T10:23:57.226Z,97860.66
2022-11-24T10:25:59.157Z,97860.19
2022-11-24T10:27:37.450Z,97858.25
2022-11-24T10:29:40.002Z,97860.69
2022-11-24T10:31:23.588Z,97857.09
2022-11-24T10:32:58.258Z,97856.72
2022-11-24T10:34:34.497Z,97849.50
2022-11-24T10:36:19.843Z,97856.75
2022-11-24T10:37:57.763Z,97855.78
2022-11-24T10:39:58.657Z,97846.81
2022-11-24T10:41:53.087Z,97848.69
2022-11-24T10:43:28.614Z,97850.13
2022-11-24T10:45:10.641Z,97852.75
2022-11-24T10:46:42.507Z,97862.56
2022-11-24T10:48:40.418Z,97863.56
2022-11-24T10:50:24.030Z,97866.00
2022-11-24T10:52:16.508Z,97866.63
2022-11-24T10:53:48.882Z,97867.66
2022-11-24T10:55:21.700Z,97873.56
2022-11-24T10:56:55.542Z,97875.53
2022-11-24T10:58:37.665Z,97868.34
2022-11-24T11:00:19.194Z,97864.69
2022-11-24T11:01:52.747Z,97867.06
2022-11-24T11:03:32.947Z,97861.00
2022-11-24T11:05:28.154Z,97862.97
2022-11-24T11:07:19.999Z,97857.25
2022-11-24T11:09:22.026Z,97854.50
2022-11-24T11:11:22.043Z,97850.66
2022-11-24T11:12:53.703Z,97848.56
2022-11-24T11:14:31.525Z,97839.44
2022-11-24T11:16:22.702Z,97844.22
2022-11-24T11:17:58.703Z,97843.25
2022-11-24T11:19:53.152Z,97843.41
2022-11-24T11:21:37.421Z,97841.00
2022-11-24T11:23:21.379Z,97841.31
2022-11-24T11:25:18.010Z,97841.25
2022-11-24T11:27:17.338Z,97834.28
2022-11-24T11:31:18.061Z,97840.41
2022-11-24T11:34:44.597Z,97841.19
2022-11-24T11:36:16.436Z,97838.34
2022-11-24T11:37:49.593Z,97835.56
2022-11-24T11:39:35.390Z,97837.56
2022-11-24T11:41:17.066Z,97841.53
2022-11-24T11:43:03.777Z,97844.31
2022-11-24T11:44:41.907Z,97844.03
2022-11-24T11:46:18.280Z,97844.84
2022-11-24T11:47:52.773Z,97850.56
2022-11-24T11:49:24.961Z,97852.69
2022-11-24T11:51:22.845Z,97848.94
2022-11-24T11:53:04.194Z,97851.72
2022-11-24T11:54:58.526Z,97847.09
2022-11-24T11:56:33.727Z,97854.63
2022-11-24T11:58:14.395Z,97848.06
2022-11-24T12:00:02.612Z,97857.88
2022-11-24T12:01:42.196Z,97852.63
2022-11-24T12:03:49.696Z,97851.47
2022-11-24T12:05:40.146Z,97854.22
2022-11-24T12:07:42.348Z,97858.97
2022-11-24T12:09:29.000Z,97863.06
2022-11-24T12:11:09.799Z,97860.25
2022-11-24T12:12:59.544Z,97870.41
2022-11-24T12:15:12.401Z,97868.59
2022-11-24T12:16:47.791Z,97871.56
2022-11-24T12:18:57.239Z,97876.03
2022-11-24T12:20:47.716Z,97877.16
2022-11-24T12:22:48.418Z,97878.63
2022-11-24T12:24:40.244Z,97876.31
2022-11-24T12:26:26.823Z,97882.53
2022-11-24T12:28:19.674Z,97885.81
2022-11-24T12:30:00.130Z,97891.66
2022-11-24T12:32:15.989Z,97886.91
2022-11-24T12:34:16.142Z,97881.84
2022-11-24T12:35:56.037Z,97886.97
2022-11-24T12:37:40.339Z,97895.63
2022-11-24T12:39:26.038Z,97894.50
2022-11-24T12:41:45.114Z,97893.53
2022-11-24T12:43:29.640Z,97899.28
2022-11-24T12:45:13.032Z,97899.44
2022-11-24T12:47:06.760Z,97896.97
2022-11-24T12:48:57.493Z,97894.81
2022-11-24T12:50:34.911Z,97890.75
2022-11-24T12:52:13.194Z,97888.09
2022-11-24T12:53:48.105Z,97889.97
2022-11-24T12:55:23.655Z,97885.56
2022-11-24T12:57:21.411Z,97881.25
2022-11-24T12:59:16.125Z,97873.09
2022-11-24T13:01:05.857Z,97873.63
2022-11-24T13:02:41.374Z,97882.25
2022-11-24T13:04:42.353Z,97885.72
2022-11-24T13:06:19.316Z,97889.25
2022-11-24T13:08:00.315Z,97880.41
2022-11-24T13:09:31.948Z,97890.59
2022-11-24T13:11:21.835Z,97885.03
2022-11-24T13:12:57.456Z,97887.50
2022-11-24T13:14:32.976Z,97883.94
2022-11-24T13:18:43.198Z,97888.34
2022-11-24T13:20:21.002Z,97888.38
2022-11-24T13:22:08.202Z,97892.94
2022-11-24T13:23:40.469Z,97888.38
2022-11-24T13:25:14.844Z,97890.63
2022-11-24T13:26:49.353Z,97900.78
2022-11-24T13:29:13.447Z,97894.06
2022-11-24T13:31:10.152Z,97899.47
2022-11-24T13:32:42.047Z,97908.97
2022-11-24T13:34:40.259Z,97900.28
2022-11-24T13:36:12.358Z,97904.53
2022-11-24T13:37:45.377Z,97902.75
2022-11-24T13:39:21.281Z,97901.09
2022-11-24T13:41:20.998Z,97909.28
2022-11-24T13:43:03.202Z,97910.91
2022-11-24T13:44:51.824Z,97908.31
2022-11-24T13:47:15.840Z,97911.75
2022-11-24T13:48:48.091Z,97918.63
2022-11-24T13:50:21.529Z,97912.06
2022-11-24T13:51:58.426Z,97914.34
2022-11-24T13:53:41.414Z,97921.38
2022-11-24T13:55:13.351Z,97918.94
2022-11-24T13:56:45.237Z,97917.63
2022-11-24T13:58:46.853Z,97913.53
2022-11-24T14:00:24.541Z,97917.13
2022-11-24T14:01:58.675Z,97917.16
2022-11-24T14:03:35.158Z,97912.59
2022-11-24T14:05:07.044Z,97917.63
2022-11-24T14:06:55.256Z,97918.28
2022-11-24T14:08:30.950Z,97914.84
2022-11-24T14:10:02.855Z,97915.19
2022-11-24T14:11:34.507Z,97912.06
2022-11-24T14:13:21.264Z,97910.59
2022-11-24T14:14:57.307Z,97906.34
2022-11-24T14:16:28.995Z,97911.75
2022-11-24T14:18:00.649Z,97913.56
2022-11-24T14:19:32.444Z,97910.94
2022-11-24T14:21:40.482Z,97909.59
2022-11-24T14:23:12.997Z,97910.91
2022-11-24T14:24:47.067Z,97908.31
2022-11-24T14:26:39.767Z,97910.72
2022-11-24T14:28:28.559Z,97911.59
2022-11-24T14:30:15.530Z,97907.16
2022-11-24T14:31:55.439Z,97913.88
2022-11-24T14:33:27.094Z,97911.38
2022-11-24T14:34:58.818Z,97904.66
2022-11-24T14:36:30.521Z,97912.81
2022-11-24T14:38:04.290Z,97909.50
2022-11-24T14:39:41.310Z,97906.78
2022-11-24T14:41:25.999Z,97909.50
2022-11-24T14:42:57.650Z,97909.06
2022-11-24T14:44:43.463Z,97912.94
2022-11-24T14:46:19.748Z,97919.66
2022-11-24T14:47:51.333Z,97919.94
2022-11-24T14:49:23.736Z,97914.19
2022-11-24T14:51:11.165Z,97929.41
2022-11-24T14:52:52.465Z,97923.69
2022-11-24T14:54:24.886Z,97928.25
2022-11-24T14:56:29.090Z,97932.47
2022-11-24T14:58:01.105Z,97929.19
2022-11-24T14:59:36.299Z,97933.25
2022-11-24T15:01:21.530Z,97936.06
2022-11-24T15:02:56.138Z,97937.28
2022-11-24T15:05:00.790Z,97934.53
2022-11-24T15:06:21.695Z,97936.78
2022-11-24T15:08:02.767Z,97936.78
2022-11-24T15:09:49.169Z,97945.28
2022-11-24T15:11:21.165Z,97947.84
2022-11-24T15:12:57.242Z,97948.09
2022-11-24T15:14:51.418Z,97944.38
2022-11-24T15:16:26.246Z,97947.59
2022-11-24T15:18:00.349Z,97945.66
2022-11-24T15:19:35.415Z,97945.38
2022-11-24T15:21:07.093Z,97944.84
2022-11-24T15:22:42.089Z,97942.53
2022-11-24T15:24:19.245Z,97940.16
2022-11-24T15:25:54.497Z,97945.69
2022-11-24T15:27:26.013Z,97941.50
2022-11-24T15:28:57.604Z,97946.06
2022-11-24T15:30:29.514Z,97943.06
2022-11-24T15:32:01.157Z,97941.25
2022-11-24T15:33:32.869Z,97952.09
2022-11-24T15:35:04.880Z,97950.25
2022-11-24T15:36:36.430Z,97950.03
2022-11-24T15:38:08.080Z,97953.00
2022-11-24T15:39:39.695Z,97951.00
2022-11-24T15:41:19.618Z,97956.81
2022-11-24T15:42:53.588Z,97957.88
2022-11-24T15:44:25.327Z,97950.94
2022-11-24T15:45:58.500Z,97958.31
2022-11-24T15:47:30.174Z,97950.75
2022-11-24T15:49:01.801Z,97957.47
2022-11-24T15:50:35.232Z,97950.81
2022-11-24T15:52:06.944Z,97952.81
2022-11-24T15:53:46.581Z,97956.97
2022-11-24T15:55:21.217Z,97958.22
2022-11-24T15:56:52.875Z,97956.47
2022-11-24T15:58:24.642Z,97958.25
2022-11-24T15:59:56.206Z,97958.84
2022-11-24T16:01:33.243Z,97961.31
2022-11-24T16:03:38.258Z,97959.66
2022-11-24T16:04:56.473Z,97966.25
2022-11-24T16:06:28.060Z,97965.34
2022-11-24T16:07:59.690Z,97960.72
2022-11-24T16:09:31.333Z,97958.16
2022-11-24T16:11:02.979Z,97968.34
2022-11-24T16:12:34.525Z,97966.44
2022-11-24T16:14:06.178Z,97967.66
2022-11-24T16:15:38.124Z,97966.00
2022-11-24T16:17:10.063Z,97968.22
2022-11-24T16:18:41.772Z,97961.81
2022-11-24T16:20:13.464Z,97966.28
2022-11-24T16:21:47.925Z,97959.06
2022-11-24T16:23:20.485Z,97960.41
2022-11-24T16:24:52.072Z,97962.06
2022-11-24T16:26:23.654Z,97963.28
2022-11-24T16:28:01.488Z,97961.81
2022-11-24T16:29:38.167Z,97966.03
2022-11-24T16:31:10.272Z,97958.09
2022-11-24T16:32:41.869Z,97969.88
2022-11-24T16:34:14.965Z,97971.38
2022-11-24T16:35:48.330Z,97973.72
2022-11-24T16:37:21.696Z,97977.13
2022-11-24T16:38:53.317Z,97976.19
2022-11-24T16:40:25.219Z,97977.94
2022-11-24T16:41:56.850Z,97978.75
2022-11-24T16:43:29.148Z,97979.06
2022-11-24T16:45:00.782Z,97988.88
2022-11-24T16:46:32.361Z,97979.19
2022-11-24T16:48:04.132Z,97981.34
2022-11-24T16:49:35.696Z,97974.25
2022-11-24T16:51:08.826Z,97979.44
2022-11-24T16:52:40.559Z,97980.25
2022-11-24T16:54:12.369Z,97974.34
2022-11-24T16:55:44.015Z,97976.53
2022-11-24T16:57:15.920Z,97973.38
2022-11-24T16:58:47.717Z,97974.06
2022-11-24T17:00:19.557Z,97973.25
2022-11-24T17:01:51.421Z,97959.88
2022-11-24T17:03:23.013Z,97966.44
2022-11-24T17:04:54.644Z,97966.69
2022-11-24T17:06:26.976Z,97964.34
2022-11-24T17:07:58.613Z,97971.03
2022-11-24T17:09:30.266Z,97972.63
2022-11-24T17:11:13.937Z,97967.84
2022-11-24T17:12:45.502Z,97974.94
2022-11-24T17:14:17.150Z,97979.47
2022-11-24T17:15:53.980Z,97984.78
2022-11-24T17:17:26.164Z,97984.78
2022-11-24T17:18:58.759Z,97978.38
2022-11-24T17:20:31.522Z,97986.69
2022-11-24T17:22:03.107Z,97985.31
2022-11-24T17:23:34.779Z,97991.34
2022-11-24T17:25:08.648Z,97992.41
2022-11-24T17:26:43.478Z,97993.88
2022-11-24T17:28:17.888Z,97993.47
2022-11-24T17:29:49.477Z,97994.13
2022-11-24T17:31:27.286Z,97994.84
2022-11-24T17:32:58.957Z,97994.53
2022-11-24T17:34:30.666Z,97987.00
2022-11-24T17:36:04.687Z,97985.03
2022-11-24T17:37:37.053Z,97979.06
2022-11-24T17:39:09.470Z,97983.66
2022-11-24T17:40:46.550Z,97981.25
2022-11-24T17:42:18.148Z,97988.22
2022-11-24T17:43:50.847Z,97990.50
2022-11-24T17:45:22.455Z,97987.09
2022-11-24T17:46:54.258Z,97990.34
2022-11-24T17:48:25.966Z,97991.78
2022-11-24T17:49:57.628Z,97987.81
2022-11-24T17:51:29.316Z,97994.91
2022-11-24T17:53:01.022Z,97996.25
2022-11-24T17:54:56.520Z,97996.50
2022-11-24T17:56:27.120Z,97992.69
2022-11-24T17:57:58.792Z,97993.91
2022-11-24T17:59:30.459Z,98002.75
2022-11-24T18:01:02.155Z,98003.72
2022-11-24T18:02:33.886Z,98006.69
2022-11-24T18:04:05.639Z,98001.47
2022-11-24T18:05:37.819Z,98005.84
2022-11-24T18:07:09.519Z,98005.84
2022-11-24T18:08:46.569Z,98004.19
2022-11-24T18:10:18.281Z,97998.34
2022-11-24T18:11:51.989Z,98002.22
2022-11-24T18:13:54.524Z,98008.41
2022-11-24T18:15:15.261Z,98000.97
2022-11-24T18:16:46.869Z,98009.47
2022-11-24T18:18:18.501Z,98015.16
2022-11-24T18:19:50.153Z,98009.06
2022-11-24T18:21:21.792Z,98007.09
2022-11-24T18:23:08.800Z,98008.19
2022-11-24T18:24:40.571Z,98010.06
2022-11-24T18:26:15.017Z,98017.00
2022-11-24T18:27:46.747Z,98012.78
2022-11-24T18:29:18.353Z,98015.75
2022-11-24T18:30:50.447Z,98013.25
2022-11-24T18:32:22.042Z,98009.25
2022-11-24T18:33:53.647Z,98014.94
2022-11-24T18:35:25.197Z,98012.72
2022-11-24T18:36:56.769Z,98004.13
2022-11-24T18:38:28.501Z,98007.44
2022-11-24T18:40:00.342Z,98012.72
2022-11-24T18:41:32.405Z,98014.72
2022-11-24T18:43:04.133Z,98011.91
2022-11-24T18:44:36.766Z,98000.59
2022-11-24T18:46:15.049Z,98011.94
2022-11-24T18:47:46.660Z,97999.09
2022-11-24T18:49:18.305Z,98000.59
2022-11-24T18:50:55.064Z,97994.88
2022-11-24T18:52:26.660Z,98001.69
2022-11-24T18:53:58.422Z,98007.50
2022-11-24T18:55:30.043Z,98003.41